Terminal Aerodrome Forecast
Issued by NWS Wilmington, OH

Home | Current Version | Previous Version | Text Only | Print | Product List | Glossary On
Versions: 1 2 3 4 5 6 7 8 9 10 11 12 13 14 15 16
428
FTUS41 KILN 280822 AAC
TAFILN
TAF AMD
KILN 280822Z 2808/2906 00000KT P6SM SCT200
     FM280900 00000KT 3SM BR BKN200
     FM281300 12007KT P6SM BKN200
     FM290000 11007KT P6SM BKN070
     FM290300 16010G15KT P6SM VCSH OVC045 WS020/21050KT=

USA.gov is the U.S. government's official web portal to all federal, state and local government web resources and services.